Time;durP1;ratioP1;P1;durP2;ratioP2;P2;SDS_P1;SDS_P2;PMS_P1;PMS_P2;Temp;Humidity;BMP_temperature;BMP_pressure;BME280_temperature;BME280_humidity;BME280_pressure;Samples;Min_cycle;Max_cycle;Signal;HPM_P1;HPM_P2
2022/06/12 00:00:30;;;;;;;;;;;18.30;75.60;;;;;;5053148;28;19921;-55
2022/06/12 00:02:57;;;;;;;;;;;18.30;75.00;;;;;;5052735;28;19956;-57
2022/06/12 00:05:24;;;;;;;;;;;18.30;75.00;;;;;;5052047;28;19973;-56
2022/06/12 00:07:50;;;;;;;;;;;18.30;75.80;;;;;;5053328;28;20375;-56
2022/06/12 00:10:16;;;;;;;;;;;18.30;75.10;;;;;;5053179;28;19913;-57
2022/06/12 00:12:42;;;;;;;;;;;18.30;75.00;;;;;;5053266;28;19913;-56
2022/06/12 00:15:09;;;;;;;;;;;18.30;75.10;;;;;;5052209;28;19967;-56
2022/06/12 00:17:35;;;;;;;;;;;18.30;75.40;;;;;;5052388;28;19919;-56
2022/06/12 00:20:00;;;;;;;;;;;18.20;76.00;;;;;;5052455;28;20007;-56
2022/06/12 00:22:26;;;;;;;;;;;18.20;75.50;;;;;;5052944;28;20468;-56
2022/06/12 00:24:51;;;;;;;;;;;18.10;75.60;;;;;;5053381;28;19919;-56
2022/06/12 00:27:17;;;;;;;;;;;18.10;75.90;;;;;;5052558;28;19948;-56
2022/06/12 00:29:44;;;;;;;;;;;18.00;76.40;;;;;;5052229;28;19976;-56
2022/06/12 00:32:13;;;;;;;;;;;18.00;76.40;;;;;;5052190;28;19940;-55
2022/06/12 00:34:44;;;;;;;;;;;18.00;76.60;;;;;;5052001;28;19917;-56
2022/06/12 00:37:11;;;;;;;;;;;17.90;76.50;;;;;;5057939;28;19947;-55
2022/06/12 00:39:37;;;;;;;;;;;17.90;76.80;;;;;;5052546;28;19952;-55
2022/06/12 00:42:03;;;;;;;;;;;17.90;76.80;;;;;;5034037;28;20429;-55
2022/06/12 00:44:32;;;;;;;;;;;17.80;77.60;;;;;;5052166;28;20402;-55
2022/06/12 00:46:59;;;;;;;;;;;17.80;77.50;;;;;;5052342;28;20306;-54
2022/06/12 00:49:25;;;;;;;;;;;17.80;77.80;;;;;;5051085;28;19921;-56
2022/06/12 00:51:53;;;;;;;;;;;17.80;77.60;;;;;;5053233;28;20573;-57
2022/06/12 00:54:19;;;;;;;;;;;17.70;78.00;;;;;;5051634;28;20006;-57
2022/06/12 00:56:47;;;;;;;;;;;17.70;78.30;;;;;;5052017;28;19916;-57
2022/06/12 00:59:15;;;;;;;;;;;17.70;78.30;;;;;;5051952;28;19935;-56
2022/06/12 01:01:46;;;;;;;;;;;17.70;78.40;;;;;;5051217;28;19921;-54
2022/06/12 01:06:57;;;;;;;;;;;17.60;78.20;;;;;;5052973;28;19916;-55
2022/06/12 01:09:26;;;;;;;;;;;17.60;78.70;;;;;;5051305;28;19940;-56
2022/06/12 01:11:53;;;;;;;;;;;17.60;78.70;;;;;;5051608;28;19999;-56
2022/06/12 01:14:20;;;;;;;;;;;17.60;79.10;;;;;;5051241;28;19979;-56
2022/06/12 01:16:48;;;;;;;;;;;17.50;79.00;;;;;;5051098;28;19921;-57
2022/06/12 01:19:34;;;;;;;;;;;17.50;79.30;;;;;;5052212;28;19909;-57
2022/06/12 01:22:14;;;;;;;;;;;17.50;79.40;;;;;;5052218;28;20319;-56
2022/06/12 01:24:58;;;;;;;;;;;17.50;79.60;;;;;;5034113;28;19917;-55
2022/06/12 01:27:24;;;;;;;;;;;17.50;80.10;;;;;;5050979;28;20402;-57
2022/06/12 01:30:08;;;;;;;;;;;17.40;79.70;;;;;;5051192;28;19952;-56
2022/06/12 01:32:37;;;;;;;;;;;17.40;79.90;;;;;;5050960;28;19948;-55
2022/06/12 01:35:15;;;;;;;;;;;17.30;80.90;;;;;;5051205;28;20368;-54
2022/06/12 01:38:01;;;;;;;;;;;17.20;81.00;;;;;;5050878;28;19912;-55
2022/06/12 01:40:26;;;;;;;;;;;17.20;81.10;;;;;;5050929;28;19921;-55
2022/06/12 01:42:56;;;;;;;;;;;17.20;81.30;;;;;;5052364;28;19978;-53
2022/06/12 01:45:47;;;;;;;;;;;17.20;81.10;;;;;;5049628;28;19924;-56
2022/06/12 01:48:13;;;;;;;;;;;17.20;81.00;;;;;;4969680;28;19914;-56
2022/06/12 01:50:41;;;;;;;;;;;17.10;81.40;;;;;;4968806;28;20328;-55
2022/06/12 01:53:09;;;;;;;;;;;17.10;81.60;;;;;;4969764;28;19914;-55
2022/06/12 01:55:47;;;;;;;;;;;17.10;81.30;;;;;;4969988;28;19914;-54
2022/06/12 01:58:17;;;;;;;;;;;17.10;81.30;;;;;;4970323;28;19910;-54
2022/06/12 02:00:47;;;;;;;;;;;17.10;81.40;;;;;;4969745;28;19933;-55
2022/06/12 02:03:26;;;;;;;;;;;17.00;81.50;;;;;;4952082;28;19918;-55
2022/06/12 02:05:55;;;;;;;;;;;16.90;81.50;;;;;;4968890;28;19921;-51
2022/06/12 02:08:23;;;;;;;;;;;16.90;81.10;;;;;;4969123;28;19965;-54
2022/06/12 02:10:49;;;;;;;;;;;16.80;81.20;;;;;;4969462;28;20377;-55
2022/06/12 02:13:27;;;;;;;;;;;16.80;81.40;;;;;;4969682;28;19917;-55
2022/06/12 02:15:55;;;;;;;;;;;16.70;81.20;;;;;;4969557;28;19910;-55
2022/06/12 02:18:29;;;;;;;;;;;16.70;81.10;;;;;;4968824;28;19918;-56
2022/06/12 02:21:15;;;;;;;;;;;16.70;81.00;;;;;;4968949;28;19922;-53
2022/06/12 02:23:50;;;;;;;;;;;16.70;80.90;;;;;;4968785;28;20329;-55
2022/06/12 02:26:18;;;;;;;;;;;16.70;80.80;;;;;;5046409;28;20015;-57
2022/06/12 02:28:49;;;;;;;;;;;16.70;81.50;;;;;;5049517;28;20373;-57
2022/06/12 02:31:17;;;;;;;;;;;16.70;81.40;;;;;;5050398;28;19913;-56
2022/06/12 02:33:45;;;;;;;;;;;16.60;81.80;;;;;;5050634;28;20370;-57
2022/06/12 02:36:16;;;;;;;;;;;16.60;81.90;;;;;;5049298;28;19913;-56
2022/06/12 02:39:02;;;;;;;;;;;16.60;81.70;;;;;;5048435;28;19970;-56
2022/06/12 02:41:31;;;;;;;;;;;16.50;82.00;;;;;;5048481;28;19921;-55
2022/06/12 02:43:58;;;;;;;;;;;16.50;81.90;;;;;;5048698;28;20020;-55
2022/06/12 02:46:23;;;;;;;;;;;16.50;82.10;;;;;;5049779;28;19916;-56
2022/06/12 02:48:49;;;;;;;;;;;16.40;82.60;;;;;;5050434;28;20062;-55
2022/06/12 02:51:14;;;;;;;;;;;16.40;82.80;;;;;;5049219;28;20011;-55
2022/06/12 02:53:49;;;;;;;;;;;16.30;82.50;;;;;;5049468;28;19913;-55
2022/06/12 02:56:23;;;;;;;;;;;16.30;82.80;;;;;;5049550;28;20058;-54
2022/06/12 02:58:54;;;;;;;;;;;16.40;82.60;;;;;;5054137;28;19921;-54
2022/06/12 03:01:25;;;;;;;;;;;16.40;83.00;;;;;;5049341;28;19932;-57
2022/06/12 03:03:56;;;;;;;;;;;16.30;82.80;;;;;;5050247;28;19913;-57
2022/06/12 03:06:29;;;;;;;;;;;16.30;82.50;;;;;;5048922;28;20310;-57
2022/06/12 03:08:56;;;;;;;;;;;16.40;82.80;;;;;;5049346;28;19924;-58
2022/06/12 03:11:21;;;;;;;;;;;16.40;82.60;;;;;;5049116;28;19913;-56
2022/06/12 03:13:48;;;;;;;;;;;16.40;82.70;;;;;;5049015;28;19920;-57
2022/06/12 03:16:18;;;;;;;;;;;16.40;83.00;;;;;;5049017;28;19913;-53
2022/06/12 03:18:50;;;;;;;;;;;16.30;83.10;;;;;;5050215;28;19920;-56
2022/06/12 03:21:34;;;;;;;;;;;16.30;83.70;;;;;;5048757;28;20517;-53
2022/06/12 03:24:15;;;;;;;;;;;16.20;83.30;;;;;;5048673;28;19921;-56
2022/06/12 03:26:56;;;;;;;;;;;16.20;83.40;;;;;;5031041;28;20410;-57
2022/06/12 03:29:40;;;;;;;;;;;16.20;83.30;;;;;;5048859;28;20383;-56
2022/06/12 03:32:05;;;;;;;;;;;16.20;83.50;;;;;;5048651;28;19913;-54
2022/06/12 03:35:07;;;;;;;;;;;16.20;83.80;;;;;;5048412;28;19974;-55
2022/06/12 03:37:41;;;;;;;;;;;16.20;83.70;;;;;;4968142;28;19920;-53
2022/06/12 03:40:12;;;;;;;;;;;16.20;83.80;;;;;;4968755;28;19926;-56
2022/06/12 03:42:44;;;;;;;;;;;16.20;83.80;;;;;;4968772;28;19918;-58
2022/06/12 03:45:16;;;;;;;;;;;16.20;83.40;;;;;;4967701;28;20016;-55
2022/06/12 03:47:51;;;;;;;;;;;16.20;83.10;;;;;;4969914;28;20036;-56
2022/06/12 03:50:29;;;;;;;;;;;16.20;83.30;;;;;;4967826;28;19973;-57
2022/06/12 03:52:54;;;;;;;;;;;16.20;83.10;;;;;;4961309;28;19914;-56
2022/06/12 03:57:50;;;;;;;;;;;16.20;82.90;;;;;;4968008;28;19930;-55
2022/06/12 03:58:15;;;;;;;;;;;16.20;82.90;;;;;;4968049;28;19968;-54
2022/06/12 04:00:42;;;;;;;;;;;16.20;83.40;;;;;;4968220;28;20365;-55
2022/06/12 04:03:14;;;;;;;;;;;16.20;83.30;;;;;;4967374;28;20341;-57
2022/06/12 04:05:45;;;;;;;;;;;16.20;83.00;;;;;;4967899;28;20405;-54
2022/06/12 04:08:14;;;;;;;;;;;16.20;82.90;;;;;;4967936;28;19936;-54
2022/06/12 04:10:40;;;;;;;;;;;16.20;82.90;;;;;;4977268;28;19963;-57
2022/06/12 04:13:08;;;;;;;;;;;16.20;82.70;;;;;;5048954;28;19952;-57
2022/06/12 04:15:47;;;;;;;;;;;16.20;83.30;;;;;;5053329;28;19909;-55
2022/06/12 04:18:13;;;;;;;;;;;16.30;83.30;;;;;;5051931;28;19912;-55
2022/06/12 04:20:59;;;;;;;;;;;16.30;83.80;;;;;;5051849;28;19917;-57
2022/06/12 04:23:31;;;;;;;;;;;16.30;83.40;;;;;;5051930;28;20804;-56
2022/06/12 04:26:20;;;;;;;;;;;16.30;83.70;;;;;;5052026;28;19998;-56
2022/06/12 04:28:45;;;;;;;;;;;16.30;83.50;;;;;;5051685;28;19917;-56
2022/06/12 04:31:13;;;;;;;;;;;16.30;83.70;;;;;;5051412;28;19927;-54
2022/06/12 04:33:48;;;;;;;;;;;16.40;83.60;;;;;;5052326;28;19917;-56
2022/06/12 04:36:14;;;;;;;;;;;16.40;83.60;;;;;;5051423;28;19909;-56
2022/06/12 04:38:40;;;;;;;;;;;16.40;84.10;;;;;;5051480;28;19986;-55
2022/06/12 04:41:07;;;;;;;;;;;16.50;84.20;;;;;;5051088;28;19924;-57
2022/06/12 04:43:32;;;;;;;;;;;16.50;84.00;;;;;;5051096;28;19920;-53
2022/06/12 04:45:58;;;;;;;;;;;16.60;84.00;;;;;;5052675;28;19909;-57
2022/06/12 04:48:44;;;;;;;;;;;16.60;84.30;;;;;;5051306;28;19908;-56
2022/06/12 04:51:10;;;;;;;;;;;16.60;84.20;;;;;;5032948;28;20008;-55
2022/06/12 04:53:36;;;;;;;;;;;16.70;84.40;;;;;;5051226;28;19909;-54
2022/06/12 04:56:02;;;;;;;;;;;16.80;84.30;;;;;;5033428;28;19920;-57
2022/06/12 04:58:28;;;;;;;;;;;16.80;84.20;;;;;;5051958;28;19919;-57
2022/06/12 05:00:53;;;;;;;;;;;16.80;83.80;;;;;;5052495;28;19925;-52
2022/06/12 05:03:19;;;;;;;;;;;16.90;83.80;;;;;;5050528;28;19963;-55
2022/06/12 05:05:45;;;;;;;;;;;16.90;83.70;;;;;;5048772;28;19992;-55
2022/06/12 05:08:11;;;;;;;;;;;16.80;83.30;;;;;;5051417;28;19916;-57
2022/06/12 05:10:37;;;;;;;;;;;16.80;83.40;;;;;;5051553;28;19964;-52
2022/06/12 05:13:02;;;;;;;;;;;16.70;83.30;;;;;;5052560;28;19912;-55
2022/06/12 05:15:28;;;;;;;;;;;16.70;83.30;;;;;;5050649;28;20398;-62
2022/06/12 05:17:54;;;;;;;;;;;16.80;83.60;;;;;;5051165;28;20004;-62
2022/06/12 05:20:21;;;;;;;;;;;16.80;83.10;;;;;;5050631;28;19974;-60
2022/06/12 05:22:47;;;;;;;;;;;16.80;83.00;;;;;;5051620;28;20012;-62
2022/06/12 05:25:13;;;;;;;;;;;16.70;82.90;;;;;;5050272;28;20351;-61
2022/06/12 05:27:39;;;;;;;;;;;16.70;82.90;;;;;;5052245;28;19909;-62
2022/06/12 05:30:06;;;;;;;;;;;16.70;82.20;;;;;;5051744;28;19920;-62
2022/06/12 05:32:32;;;;;;;;;;;16.60;82.00;;;;;;5051189;28;19913;-62
2022/06/12 05:34:58;;;;;;;;;;;16.60;82.10;;;;;;5051114;28;19958;-61
2022/06/12 05:37:24;;;;;;;;;;;16.50;81.90;;;;;;5050292;28;19924;-61
2022/06/12 05:39:49;;;;;;;;;;;16.50;82.00;;;;;;5051114;28;19944;-62
2022/06/12 05:42:15;;;;;;;;;;;16.50;82.00;;;;;;5050891;28;19917;-62
2022/06/12 05:44:40;;;;;;;;;;;16.50;82.20;;;;;;5051210;28;20371;-63
2022/06/12 05:47:07;;;;;;;;;;;16.40;82.40;;;;;;5051063;28;20010;-62
2022/06/12 05:49:32;;;;;;;;;;;16.40;82.70;;;;;;5046348;28;19913;-62
2022/06/12 05:51:59;;;;;;;;;;;16.50;82.80;;;;;;5052023;28;19916;-62
2022/06/12 05:54:24;;;;;;;;;;;16.60;82.80;;;;;;5050704;28;20591;-62
2022/06/12 05:56:50;;;;;;;;;;;16.60;82.60;;;;;;5050884;28;19952;-62
2022/06/12 05:59:15;;;;;;;;;;;16.60;82.60;;;;;;5050730;28;19936;-62
2022/06/12 06:01:41;;;;;;;;;;;16.60;82.70;;;;;;5052675;28;19927;-62
2022/06/12 06:04:07;;;;;;;;;;;16.60;82.50;;;;;;5051108;28;20371;-62
2022/06/12 06:06:35;;;;;;;;;;;16.70;82.60;;;;;;5050456;28;19913;-62
2022/06/12 06:09:02;;;;;;;;;;;16.70;82.40;;;;;;5050517;28;19999;-63
2022/06/12 06:11:27;;;;;;;;;;;16.70;82.30;;;;;;5050453;28;19921;-62
2022/06/12 06:13:53;;;;;;;;;;;16.60;82.10;;;;;;5050347;28;19920;-60
2022/06/12 06:16:19;;;;;;;;;;;16.70;82.30;;;;;;5050948;28;19909;-61
2022/06/12 06:18:45;;;;;;;;;;;16.70;82.30;;;;;;5049499;28;20350;-60
2022/06/12 06:21:11;;;;;;;;;;;16.80;82.30;;;;;;5049722;28;19921;-61
2022/06/12 06:23:38;;;;;;;;;;;16.80;82.10;;;;;;5050344;28;19995;-61
2022/06/12 06:26:03;;;;;;;;;;;16.90;82.00;;;;;;5050327;28;19917;-60
2022/06/12 06:28:29;;;;;;;;;;;16.90;81.90;;;;;;5032236;28;19916;-62
2022/06/12 06:30:54;;;;;;;;;;;16.90;82.00;;;;;;5051913;28;20299;-62
2022/06/12 06:33:20;;;;;;;;;;;16.90;82.10;;;;;;5049755;28;19963;-61
2022/06/12 06:35:46;;;;;;;;;;;17.00;82.00;;;;;;5049433;28;19952;-62
2022/06/12 06:38:11;;;;;;;;;;;17.00;82.10;;;;;;5049936;28;19955;-61
2022/06/12 06:40:38;;;;;;;;;;;17.10;81.70;;;;;;5049757;28;19990;-61
2022/06/12 06:43:03;;;;;;;;;;;17.10;81.40;;;;;;5051186;28;19909;-61
2022/06/12 06:48:13;;;;;;;;;;;17.00;81.40;;;;;;5050537;28;19966;-62
2022/06/12 06:50:39;;;;;;;;;;;17.10;81.90;;;;;;5049417;28;19921;-61
2022/06/12 06:53:05;;;;;;;;;;;17.10;81.50;;;;;;5049897;28;19919;-61
2022/06/12 06:55:32;;;;;;;;;;;17.10;81.00;;;;;;5050156;28;19939;-61
2022/06/12 06:57:57;;;;;;;;;;;17.10;81.40;;;;;;5050570;28;19917;-61
2022/06/12 07:00:25;;;;;;;;;;;17.10;81.30;;;;;;5049711;28;20268;-62
2022/06/12 07:02:51;;;;;;;;;;;17.20;81.10;;;;;;5049224;28;20279;-61
2022/06/12 07:05:17;;;;;;;;;;;17.30;80.50;;;;;;5049559;28;19916;-62
2022/06/12 07:07:43;;;;;;;;;;;17.30;80.60;;;;;;5049728;28;19923;-61
2022/06/12 07:10:11;;;;;;;;;;;17.30;80.40;;;;;;5050063;28;19908;-61
2022/06/12 07:12:36;;;;;;;;;;;17.40;80.10;;;;;;5050351;28;19916;-61
2022/06/12 07:15:02;;;;;;;;;;;17.40;80.60;;;;;;5049276;28;19913;-62
2022/06/12 07:17:28;;;;;;;;;;;17.50;80.10;;;;;;5049549;28;19917;-61
2022/06/12 07:19:53;;;;;;;;;;;17.50;80.10;;;;;;5049808;28;19913;-63
2022/06/12 07:22:19;;;;;;;;;;;17.60;80.50;;;;;;5048303;28;20359;-61
2022/06/12 07:24:46;;;;;;;;;;;17.70;79.80;;;;;;5050468;28;19908;-60
2022/06/12 07:27:11;;;;;;;;;;;17.70;79.60;;;;;;5049415;28;19913;-61
2022/06/12 07:29:37;;;;;;;;;;;17.70;79.60;;;;;;5048441;28;19927;-61
2022/06/12 07:32:03;;;;;;;;;;;17.70;80.00;;;;;;5049394;28;19924;-62
2022/06/12 07:34:29;;;;;;;;;;;17.80;80.20;;;;;;5049330;28;19919;-63
2022/06/12 07:36:55;;;;;;;;;;;17.80;80.00;;;;;;5050500;28;20040;-61
2022/06/12 07:39:22;;;;;;;;;;;17.90;80.80;;;;;;5049519;28;20299;-61
2022/06/12 07:41:48;;;;;;;;;;;18.00;80.20;;;;;;5049051;28;19921;-62
2022/06/12 07:44:15;;;;;;;;;;;17.90;79.50;;;;;;5049256;28;20327;-61
2022/06/12 07:46:41;;;;;;;;;;;17.90;79.30;;;;;;5049999;28;19916;-63
2022/06/12 07:49:06;;;;;;;;;;;18.00;79.10;;;;;;5051158;28;20367;-62
2022/06/12 07:51:32;;;;;;;;;;;18.00;79.20;;;;;;5053732;28;20331;-62
2022/06/12 07:53:58;;;;;;;;;;;18.00;78.70;;;;;;5053537;28;19991;-62
2022/06/12 07:56:24;;;;;;;;;;;18.00;76.80;;;;;;5053325;28;20448;-63
2022/06/12 07:58:50;;;;;;;;;;;17.90;77.60;;;;;;5053011;28;20283;-63
2022/06/12 08:01:17;;;;;;;;;;;17.90;77.40;;;;;;5053339;28;19927;-62
2022/06/12 08:03:43;;;;;;;;;;;17.90;78.20;;;;;;5053456;28;19917;-62
2022/06/12 08:06:09;;;;;;;;;;;18.00;77.90;;;;;;5052885;28;19988;-61
2022/06/12 08:08:34;;;;;;;;;;;18.00;78.10;;;;;;5053494;28;20330;-63
2022/06/12 08:11:01;;;;;;;;;;;18.10;78.40;;;;;;5053063;28;19916;-62
2022/06/12 08:13:27;;;;;;;;;;;18.20;78.00;;;;;;5052918;28;19947;-61
2022/06/12 08:15:52;;;;;;;;;;;18.20;77.40;;;;;;5053768;28;20356;-61
2022/06/12 08:18:19;;;;;;;;;;;18.20;76.50;;;;;;5052687;28;19916;-62
2022/06/12 08:20:47;;;;;;;;;;;18.20;77.40;;;;;;5052297;28;20379;-61
2022/06/12 08:23:29;;;;;;;;;;;18.20;77.70;;;;;;5053318;28;19912;-61
2022/06/12 08:26:02;;;;;;;;;;;18.20;76.80;;;;;;5052694;28;19916;-62
2022/06/12 08:28:30;;;;;;;;;;;18.20;77.40;;;;;;5052296;28;19923;-61
2022/06/12 08:30:56;;;;;;;;;;;18.30;77.50;;;;;;5053804;28;19913;-63
2022/06/12 08:33:22;;;;;;;;;;;18.40;77.60;;;;;;5051590;28;19913;-60
2022/06/12 08:35:48;;;;;;;;;;;18.40;77.20;;;;;;5052510;28;19920;-62
2022/06/12 08:38:15;;;;;;;;;;;18.50;77.70;;;;;;5034597;28;19934;-61
2022/06/12 08:40:48;;;;;;;;;;;18.50;76.60;;;;;;5046212;28;19924;-61
2022/06/12 08:43:32;;;;;;;;;;;18.60;76.20;;;;;;5052162;28;20401;-60
2022/06/12 08:46:04;;;;;;;;;;;18.60;76.60;;;;;;5052685;28;20692;-61
2022/06/12 08:48:50;;;;;;;;;;;18.60;76.90;;;;;;5052553;28;19919;-61
2022/06/12 08:51:33;;;;;;;;;;;18.70;76.30;;;;;;5052144;28;19939;-61
2022/06/12 08:54:06;;;;;;;;;;;18.70;76.00;;;;;;5052104;28;20367;-64
2022/06/12 08:56:35;;;;;;;;;;;18.70;76.30;;;;;;5051869;28;19909;-61
2022/06/12 08:59:19;;;;;;;;;;;18.80;76.00;;;;;;5052328;28;19921;-61
2022/06/12 09:01:45;;;;;;;;;;;18.80;76.20;;;;;;5051517;28;20358;-60
2022/06/12 09:04:16;;;;;;;;;;;18.90;76.00;;;;;;5052438;28;19962;-61
2022/06/12 09:06:44;;;;;;;;;;;18.90;75.80;;;;;;5052910;28;19971;-61
2022/06/12 09:09:10;;;;;;;;;;;18.90;76.30;;;;;;5051726;28;19912;-60
2022/06/12 09:11:42;;;;;;;;;;;19.00;76.10;;;;;;5051672;28;19913;-60
2022/06/12 09:14:32;;;;;;;;;;;19.10;76.40;;;;;;5051883;28;20364;-60
2022/06/12 09:17:13;;;;;;;;;;;19.20;76.40;;;;;;5049129;28;19920;-62
2022/06/12 09:20:04;;;;;;;;;;;19.20;76.60;;;;;;5051469;28;19919;-61
2022/06/12 09:22:38;;;;;;;;;;;19.30;76.80;;;;;;4970379;28;19945;-61
2022/06/12 09:25:10;;;;;;;;;;;19.30;76.60;;;;;;4971683;28;19917;-60
2022/06/12 09:27:41;;;;;;;;;;;19.40;76.60;;;;;;4971323;28;19922;-61
2022/06/12 09:30:16;;;;;;;;;;;19.40;75.60;;;;;;4970378;28;20344;-61
2022/06/12 09:32:41;;;;;;;;;;;19.40;74.60;;;;;;4970055;28;19976;-61
2022/06/12 09:35:28;;;;;;;;;;;19.40;74.40;;;;;;4970251;28;20026;-61
2022/06/12 09:40:57;;;;;;;;;;;19.50;75.40;;;;;;4970371;28;20408;-60
2022/06/12 09:43:28;;;;;;;;;;;19.50;75.70;;;;;;4970102;28;20561;-60
2022/06/12 09:45:54;;;;;;;;;;;19.60;75.60;;;;;;4970964;28;19910;-60
2022/06/12 09:48:27;;;;;;;;;;;19.60;73.90;;;;;;4970054;28;19914;-61
2022/06/12 09:50:56;;;;;;;;;;;19.60;74.30;;;;;;4970318;28;19954;-60
2022/06/12 09:53:40;;;;;;;;;;;19.60;74.10;;;;;;4969752;28;19921;-61
2022/06/12 09:56:27;;;;;;;;;;;19.70;74.40;;;;;;4965206;28;19914;-60
2022/06/12 09:59:06;;;;;;;;;;;19.70;74.50;;;;;;4995219;28;19986;-61
2022/06/12 10:01:34;;;;;;;;;;;19.80;74.60;;;;;;5055299;28;20050;-60
2022/06/12 10:04:09;;;;;;;;;;;19.90;73.80;;;;;;5033877;28;19909;-60
2022/06/12 10:06:43;;;;;;;;;;;19.90;73.60;;;;;;5051199;28;19912;-61
2022/06/12 10:09:12;;;;;;;;;;;20.00;73.30;;;;;;5047885;28;19916;-61
2022/06/12 10:11:40;;;;;;;;;;;20.00;73.30;;;;;;5031992;28;19917;-62
2022/06/12 10:14:11;;;;;;;;;;;20.10;73.80;;;;;;5050375;28;19913;-61
2022/06/12 10:16:40;;;;;;;;;;;20.10;73.20;;;;;;5050951;28;19920;-61
2022/06/12 10:19:16;;;;;;;;;;;20.10;73.20;;;;;;5051753;28;19909;-61
2022/06/12 10:21:44;;;;;;;;;;;20.20;73.60;;;;;;5050538;28;19963;-60
2022/06/12 10:24:10;;;;;;;;;;;20.10;73.80;;;;;;5050099;28;20283;-60
2022/06/12 10:26:36;;;;;;;;;;;20.20;74.00;;;;;;5050101;28;19944;-60
2022/06/12 10:29:08;;;;;;;;;;;20.20;74.30;;;;;;5050121;28;19971;-62
2022/06/12 10:31:44;;;;;;;;;;;20.30;73.70;;;;;;5050642;28;20490;-60
2022/06/12 10:34:14;;;;;;;;;;;20.30;73.80;;;;;;5050736;28;19913;-61
2022/06/12 10:36:40;;;;;;;;;;;20.40;73.70;;;;;;5050030;28;19912;-61
2022/06/12 10:39:08;;;;;;;;;;;20.40;74.30;;;;;;5050213;28;19913;-59
2022/06/12 10:41:41;;;;;;;;;;;20.50;74.60;;;;;;5049319;28;19921;-58
2022/06/12 10:44:14;;;;;;;;;;;20.60;74.20;;;;;;5049588;28;19913;-61
2022/06/12 10:46:39;;;;;;;;;;;20.60;74.50;;;;;;5049134;28;19912;-61
2022/06/12 10:49:16;;;;;;;;;;;20.60;74.60;;;;;;5050642;28;20004;-62
2022/06/12 10:51:42;;;;;;;;;;;20.70;75.10;;;;;;5050145;28;20359;-60
2022/06/12 10:54:22;;;;;;;;;;;20.70;74.70;;;;;;5048546;28;19967;-62
2022/06/12 10:57:03;;;;;;;;;;;20.80;73.00;;;;;;5049335;28;20428;-60
2022/06/12 10:59:28;;;;;;;;;;;20.70;73.70;;;;;;5049216;28;19917;-61
2022/06/12 11:02:06;;;;;;;;;;;20.70;73.80;;;;;;5049019;28;19928;-60
2022/06/12 11:04:44;;;;;;;;;;;20.70;73.90;;;;;;5049615;28;19913;-60
2022/06/12 11:07:09;;;;;;;;;;;20.70;73.10;;;;;;5049264;28;19920;-61
2022/06/12 11:09:51;;;;;;;;;;;20.70;72.40;;;;;;5049917;28;19909;-61
2022/06/12 11:12:28;;;;;;;;;;;20.70;72.40;;;;;;5048672;28;20383;-61
2022/06/12 11:15:07;;;;;;;;;;;20.70;71.90;;;;;;5044031;28;19913;-62
2022/06/12 11:17:43;;;;;;;;;;;20.70;72.40;;;;;;5048959;28;20383;-60
2022/06/12 11:20:16;;;;;;;;;;;20.70;72.30;;;;;;5048928;28;19920;-60
2022/06/12 11:22:51;;;;;;;;;;;20.80;71.80;;;;;;5054186;28;19920;-61
2022/06/12 11:25:23;;;;;;;;;;;20.80;70.60;;;;;;5053265;28;19908;-61
2022/06/12 11:27:51;;;;;;;;;;;20.70;70.00;;;;;;5054509;28;19913;-60
2022/06/12 11:30:25;;;;;;;;;;;20.70;70.40;;;;;;5052870;28;20406;-60
2022/06/12 11:32:57;;;;;;;;;;;20.70;69.90;;;;;;5053121;28;20050;-63
2022/06/12 11:35:36;;;;;;;;;;;20.70;67.80;;;;;;5052873;28;19917;-60
2022/06/12 11:38:04;;;;;;;;;;;20.70;69.20;;;;;;5053087;28;19913;-61
2022/06/12 11:40:30;;;;;;;;;;;20.70;68.10;;;;;;5052653;28;20003;-61
2022/06/12 11:43:14;;;;;;;;;;;20.80;68.80;;;;;;5054616;28;20322;-63
2022/06/12 11:45:46;;;;;;;;;;;20.80;67.90;;;;;;5053494;28;19913;-61
2022/06/12 11:48:32;;;;;;;;;;;20.80;68.10;;;;;;5034931;28;19913;-62
2022/06/12 11:51:05;;;;;;;;;;;20.80;68.30;;;;;;5052512;28;19921;-63
2022/06/12 11:53:48;;;;;;;;;;;20.80;68.40;;;;;;5052986;28;19940;-61
2022/06/12 11:56:19;;;;;;;;;;;20.90;68.10;;;;;;5052622;28;19954;-61
2022/06/12 11:58:50;;;;;;;;;;;20.90;66.80;;;;;;5052685;28;19921;-62
2022/06/12 12:01:21;;;;;;;;;;;20.90;66.10;;;;;;5052466;28;20409;-61
2022/06/12 12:03:47;;;;;;;;;;;20.90;66.30;;;;;;5053356;28;19919;-61
2022/06/12 12:06:27;;;;;;;;;;;21.00;66.90;;;;;;5051064;28;19988;-61
2022/06/12 12:09:00;;;;;;;;;;;21.10;67.80;;;;;;5052611;28;20350;-64
2022/06/12 12:11:29;;;;;;;;;;;21.20;66.10;;;;;;5052563;28;19963;-62
2022/06/12 12:13:58;;;;;;;;;;;21.20;67.40;;;;;;5052442;28;20359;-63
2022/06/12 12:16:44;;;;;;;;;;;21.20;67.10;;;;;;5034492;28;20120;-62
2022/06/12 12:19:25;;;;;;;;;;;21.30;66.70;;;;;;5053169;28;19972;-61
2022/06/12 12:21:56;;;;;;;;;;;21.30;66.20;;;;;;5053366;28;19967;-60
2022/06/12 12:24:24;;;;;;;;;;;21.30;66.30;;;;;;5052000;28;19962;-61
2022/06/12 12:26:51;;;;;;;;;;;21.30;66.10;;;;;;5052792;28;20379;-63
2022/06/12 12:29:20;;;;;;;;;;;21.30;64.40;;;;;;5052183;28;19931;-63
2022/06/12 12:31:46;;;;;;;;;;;21.20;65.30;;;;;;5052714;28;19995;-62
2022/06/12 12:34:13;;;;;;;;;;;21.30;65.50;;;;;;5052171;28;19951;-70
2022/06/12 12:42:23;;;;;;;;;;;21.40;65.20;;;;;;5052076;28;19927;-64
2022/06/12 12:44:49;;;;;;;;;;;21.50;64.60;;;;;;5052211;28;19909;-63
2022/06/12 12:47:20;;;;;;;;;;;21.60;65.00;;;;;;5052617;28;19920;-63
2022/06/12 12:49:46;;;;;;;;;;;21.70;63.60;;;;;;5052105;28;19988;-63
2022/06/12 12:52:14;;;;;;;;;;;21.60;63.60;;;;;;5052555;28;20004;-62
2022/06/12 12:54:50;;;;;;;;;;;21.60;63.80;;;;;;5052998;28;19920;-64
2022/06/12 12:57:18;;;;;;;;;;;21.70;62.20;;;;;;5051998;28;20299;-62
2022/06/12 12:59:45;;;;;;;;;;;21.80;63.90;;;;;;5051818;28;19919;-63
2022/06/12 13:02:17;;;;;;;;;;;21.80;63.80;;;;;;5051525;28;20323;-64
2022/06/12 13:04:42;;;;;;;;;;;21.80;63.70;;;;;;5052098;28;19921;-63
2022/06/12 13:07:08;;;;;;;;;;;21.90;63.90;;;;;;5052160;28;20441;-64
2022/06/12 13:09:33;;;;;;;;;;;21.90;63.30;;;;;;5052316;28;19931;-63
2022/06/12 13:12:17;;;;;;;;;;;21.90;63.40;;;;;;5033802;28;19963;-63
2022/06/12 13:14:43;;;;;;;;;;;21.90;63.60;;;;;;5051345;28;19920;-67
2022/06/12 13:17:11;;;;;;;;;;;21.90;62.80;;;;;;5051177;28;19958;-64
2022/06/12 13:19:37;;;;;;;;;;;22.00;63.50;;;;;;5051259;28;20003;-63
2022/06/12 13:22:02;;;;;;;;;;;22.00;63.60;;;;;;5051845;28;20367;-65
2022/06/12 13:24:28;;;;;;;;;;;22.00;63.40;;;;;;5050844;28;19940;-64
2022/06/12 13:26:54;;;;;;;;;;;22.00;63.20;;;;;;5048901;28;19924;-63
2022/06/12 13:29:21;;;;;;;;;;;21.90;63.60;;;;;;5051445;28;19955;-64
2022/06/12 13:32:03;;;;;;;;;;;21.90;64.00;;;;;;5050764;28;19919;-65
2022/06/12 13:34:30;;;;;;;;;;;22.00;64.10;;;;;;5051197;28;19987;-63
2022/06/12 13:36:56;;;;;;;;;;;22.10;64.30;;;;;;5051865;28;20388;-64
2022/06/12 13:39:32;;;;;;;;;;;22.10;64.30;;;;;;5049801;28;19921;-64
2022/06/12 13:41:58;;;;;;;;;;;22.10;64.20;;;;;;5050960;28;20007;-64
2022/06/12 13:44:27;;;;;;;;;;;22.20;64.00;;;;;;5050755;28;20360;-64
2022/06/12 13:46:54;;;;;;;;;;;22.10;64.00;;;;;;5050605;28;19999;-65
2022/06/12 13:49:24;;;;;;;;;;;22.20;64.20;;;;;;5051205;28;19959;-65
2022/06/12 13:51:52;;;;;;;;;;;22.10;64.20;;;;;;5051344;28;19949;-65
2022/06/12 13:54:19;;;;;;;;;;;22.20;64.00;;;;;;5050958;28;19955;-65
2022/06/12 13:56:58;;;;;;;;;;;22.20;64.30;;;;;;5050476;28;20003;-65
2022/06/12 13:59:31;;;;;;;;;;;22.10;63.80;;;;;;5050256;28;19912;-65
2022/06/12 14:02:08;;;;;;;;;;;22.20;64.00;;;;;;5050008;28;19925;-65
2022/06/12 14:04:33;;;;;;;;;;;22.20;63.50;;;;;;5049975;28;19916;-65
2022/06/12 14:07:00;;;;;;;;;;;22.20;63.90;;;;;;5051626;28;19935;-66
2022/06/12 14:09:28;;;;;;;;;;;22.30;63.30;;;;;;5050384;28;19916;-65
2022/06/12 14:11:54;;;;;;;;;;;22.20;62.50;;;;;;5050238;28;19948;-63
2022/06/12 14:14:38;;;;;;;;;;;22.20;62.10;;;;;;5050239;28;19955;-66
2022/06/12 14:17:15;;;;;;;;;;;22.20;61.20;;;;;;5049853;28;19917;-65
2022/06/12 14:19:40;;;;;;;;;;;22.20;62.00;;;;;;5045198;28;19996;-65
2022/06/12 14:22:06;;;;;;;;;;;22.30;61.60;;;;;;5051360;28;20011;-65
2022/06/12 14:24:33;;;;;;;;;;;22.30;61.90;;;;;;5049713;28;19967;-66
2022/06/12 14:26:59;;;;;;;;;;;22.30;61.40;;;;;;5049442;28;19916;-64
2022/06/12 14:29:41;;;;;;;;;;;22.40;60.10;;;;;;5049658;28;19923;-65
2022/06/12 14:32:27;;;;;;;;;;;22.50;59.00;;;;;;5049925;28;20299;-64
2022/06/12 14:35:01;;;;;;;;;;;22.60;59.50;;;;;;5049005;28;19936;-64
2022/06/12 14:37:32;;;;;;;;;;;22.60;59.90;;;;;;5049866;28;19909;-64
2022/06/12 14:39:59;;;;;;;;;;;22.60;59.60;;;;;;5050666;28;19916;-64
2022/06/12 14:42:26;;;;;;;;;;;22.60;59.70;;;;;;5049286;28;20375;-66
2022/06/12 14:44:52;;;;;;;;;;;22.60;58.70;;;;;;5049916;28;20329;-65
2022/06/12 14:47:25;;;;;;;;;;;22.60;56.70;;;;;;5049636;28;20410;-66